Time;durP1;ratioP1;P1;durP2;ratioP2;P2;SDS_P1;SDS_P2;PMS_P1;PMS_P2;Temp;Humidity;BMP_temperature;BMP_pressure;BME280_temperature;BME280_humidity;BME280_pressure;Samples;Min_cycle;Max_cycle;Signal;HPM_P1;HPM_P2
2023/07/27 00:02:25;;;;;;;1.92;1.80;;;;;;;16.95;94.85;100861.66;10296590;28;20038;-73
2023/07/27 00:07:26;;;;;;;4.20;2.25;;;;;;;16.84;93.36;100857.03;10296674;28;20106;-72
2023/07/27 00:12:26;;;;;;;10.40;2.53;;;;;;;16.62;100.00;100857.63;10280431;28;20099;-72
2023/07/27 00:17:26;;;;;;;6.82;2.63;;;;;;;16.40;100.00;100859.28;10278376;28;20094;-72
2023/07/27 00:22:27;;;;;;;4.22;2.55;;;;;;;16.12;100.00;100854.53;10296271;28;20042;-72
2023/07/27 00:27:27;;;;;;;4.53;3.05;;;;;;;15.89;100.00;100850.69;10296723;28;20483;-71
2023/07/27 00:32:27;;;;;;;3.53;2.55;;;;;;;15.70;100.00;100847.19;10296802;28;20027;-71
2023/07/27 00:37:28;;;;;;;4.90;3.58;;;;;;;15.56;100.00;100841.03;10278745;28;20042;-70
2023/07/27 00:42:28;;;;;;;7.28;3.72;;;;;;;15.41;100.00;100843.38;10278180;28;20027;-70
2023/07/27 00:47:29;;;;;;;4.55;3.10;;;;;;;15.29;100.00;100826.13;10295020;28;20447;-71
2023/07/27 00:52:29;;;;;;;3.65;3.35;;;;;;;15.08;100.00;100819.25;10277519;28;20510;-71
2023/07/27 00:57:30;;;;;;;7.57;4.18;;;;;;;14.97;100.00;100804.50;10277998;28;20030;-71
2023/07/27 01:02:30;;;;;;;5.30;3.45;;;;;;;14.89;100.00;100788.44;10295720;28;20034;-71
2023/07/27 01:07:31;;;;;;;4.72;3.20;;;;;;;14.77;100.00;100790.25;10294537;28;20430;-71
2023/07/27 01:12:39;;;;;;;6.15;4.47;;;;;;;14.68;100.00;100777.97;10294338;28;20045;-71
2023/07/27 01:17:44;;;;;;;4.22;3.00;;;;;;;14.65;100.00;100766.50;10294349;28;20038;-71
2023/07/27 01:23:12;;;;;;;6.47;4.38;;;;;;;14.73;100.00;100759.91;10275815;28;20062;-72
2023/07/27 01:28:21;;;;;;;5.43;3.70;;;;;;;14.57;100.00;100745.00;10293797;28;20479;-72
2023/07/27 01:33:26;;;;;;;5.35;4.28;;;;;;;14.48;100.00;100735.41;10276812;28;20070;-72
2023/07/27 01:38:26;;;;;;;5.45;3.92;;;;;;;14.49;100.00;100734.38;10276258;28;20425;-71
2023/07/27 01:43:27;;;;;;;4.75;3.97;;;;;;;14.52;100.00;100722.22;10276081;28;20089;-72
2023/07/27 01:48:27;;;;;;;6.80;4.85;;;;;;;14.57;100.00;100695.13;10276459;28;20110;-71
2023/07/27 01:53:28;;;;;;;4.28;3.88;;;;;;;14.56;100.00;100699.75;10275843;28;20038;-72
2023/07/27 01:58:28;;;;;;;11.10;5.15;;;;;;;14.59;100.00;100684.81;10288524;28;20042;-72
2023/07/27 02:03:29;;;;;;;4.80;4.22;;;;;;;14.58;100.00;100670.38;10273805;28;20533;-71
2023/07/27 02:08:29;;;;;;;14.00;5.70;;;;;;;14.59;100.00;100661.13;10272159;28;20114;-71
2023/07/27 02:13:38;;;;;;;5.53;4.93;;;;;;;14.62;100.00;100649.75;10305255;28;20068;-71
2023/07/27 02:18:38;;;;;;;5.82;4.50;;;;;;;14.64;100.00;100636.75;10305788;28;20038;-71
2023/07/27 02:23:39;;;;;;;8.57;4.32;;;;;;;14.64;100.00;100614.09;10287939;28;20035;-72
2023/07/27 02:28:40;;;;;;;6.22;5.20;;;;;;;14.68;100.00;100598.97;10288926;28;20105;-72
2023/07/27 02:33:40;;;;;;;8.07;3.72;;;;;;;14.65;100.00;100578.44;10304567;28;20047;-72
2023/07/27 02:38:40;;;;;;;6.90;4.78;;;;;;;14.58;100.00;100577.72;10303848;28;20097;-72
2023/07/27 02:43:41;;;;;;;7.13;5.68;;;;;;;14.60;100.00;100578.31;10288074;28;20118;-72
2023/07/27 02:48:41;;;;;;;5.20;4.43;;;;;;;14.60;100.00;100567.41;10271869;28;20372;-72
2023/07/27 02:53:42;;;;;;;7.35;6.47;;;;;;;14.61;100.00;100550.00;10305131;28;20059;-72
2023/07/27 02:58:42;;;;;;;10.15;8.25;;;;;;;14.48;100.00;100539.25;10304049;28;20035;-72
2023/07/27 03:03:43;;;;;;;8.88;8.00;;;;;;;14.53;100.00;100527.69;10304995;28;20070;-72
2023/07/27 03:08:43;;;;;;;10.70;8.63;;;;;;;14.54;100.00;100527.47;10299126;28;20113;-72
2023/07/27 03:13:45;;;;;;;11.38;8.95;;;;;;;14.54;100.00;100521.19;10281348;28;20082;-72
2023/07/27 03:18:45;;;;;;;8.35;6.55;;;;;;;14.53;100.00;100506.72;10298332;28;20042;-72
2023/07/27 03:23:47;;;;;;;15.45;10.02;;;;;;;14.56;100.00;100503.53;10298322;28;20027;-72
2023/07/27 03:28:48;;;;;;;11.32;8.43;;;;;;;14.61;100.00;100492.78;10263916;28;20482;-72
2023/07/27 03:33:48;;;;;;;11.45;8.52;;;;;;;14.59;100.00;100483.19;10280164;28;20078;-73
2023/07/27 03:38:49;;;;;;;9.13;8.23;;;;;;;14.54;100.00;100477.59;10297124;28;20042;-72
2023/07/27 03:43:49;;;;;;;8.95;7.93;;;;;;;14.55;100.00;100462.88;10297437;28;20043;-73
2023/07/27 03:48:50;;;;;;;13.55;7.82;;;;;;;14.56;100.00;100454.50;10280893;28;20039;-73
2023/07/27 03:53:50;;;;;;;9.10;7.47;;;;;;;14.61;100.00;100446.47;10248047;28;20030;-73
2023/07/27 03:58:51;;;;;;;13.18;7.20;;;;;;;14.56;100.00;100440.88;10295858;28;20475;-73
2023/07/27 04:03:51;;;;;;;7.65;6.93;;;;;;;14.60;100.00;100431.16;10263356;28;20047;-73
2023/07/27 04:08:51;;;;;;;11.57;6.93;;;;;;;14.67;100.00;100427.47;10297225;28;20039;-73
2023/07/27 04:13:52;;;;;;;8.15;7.20;;;;;;;14.72;100.00;100423.00;10298357;28;20042;-74
2023/07/27 04:18:53;;;;;;;4.93;4.53;;;;;;;14.83;100.00;100418.59;10297101;28;20049;-75
2023/07/27 04:23:54;;;;;;;5.80;5.30;;;;;;;14.91;100.00;100412.81;10294533;28;20093;-75
2023/07/27 04:28:54;;;;;;;4.68;4.38;;;;;;;14.96;100.00;100409.34;10296939;28;20135;-74
2023/07/27 04:33:55;;;;;;;4.22;3.78;;;;;;;15.05;100.00;100410.66;10295768;28;20110;-73
2023/07/27 04:38:55;;;;;;;6.75;4.35;;;;;;;15.10;100.00;100395.22;10295996;28;20054;-74
2023/07/27 04:43:57;;;;;;;4.55;4.25;;;;;;;15.21;100.00;100387.25;10294907;28;20033;-73
2023/07/27 04:48:58;;;;;;;4.40;4.00;;;;;;;15.28;100.00;100375.16;10302158;28;20504;-74
2023/07/27 04:53:58;;;;;;;4.05;3.58;;;;;;;15.37;100.00;100382.94;10296142;28;20035;-73
2023/07/27 04:58:59;;;;;;;2.92;2.72;;;;;;;15.41;100.00;100363.13;10293524;28;20117;-73
2023/07/27 05:03:59;;;;;;;2.33;2.17;;;;;;;15.54;100.00;100362.84;10216437;28;20149;-73
2023/07/27 05:09:00;;;;;;;2.42;2.30;;;;;;;15.59;100.00;100360.19;10277064;28;20109;-73
2023/07/27 05:14:00;;;;;;;1.95;1.85;;;;;;;15.61;100.00;100354.50;10293984;28;20174;-73
2023/07/27 05:19:01;;;;;;;3.03;2.83;;;;;;;15.71;100.00;100352.00;10276632;28;20054;-73
2023/07/27 05:24:01;;;;;;;2.88;2.67;;;;;;;15.83;100.00;100345.66;10292759;28;20363;-74
2023/07/27 05:29:01;;;;;;;2.83;2.63;;;;;;;15.85;100.00;100351.69;10275613;28;20477;-74
2023/07/27 05:34:02;;;;;;;2.47;2.28;;;;;;;15.95;100.00;100339.06;10292553;28;20057;-75
2023/07/27 05:39:03;;;;;;;2.78;2.58;;;;;;;15.98;100.00;100338.53;10293444;28;20327;-77
2023/07/27 05:44:04;;;;;;;3.08;2.35;;;;;;;16.11;100.00;100334.66;10275173;28;20042;-76
2023/07/27 05:49:05;;;;;;;2.15;2.05;;;;;;;16.15;100.00;100335.84;10275758;28;20037;-74
2023/07/27 05:54:06;;;;;;;1.38;1.27;;;;;;;16.20;100.00;100326.88;10275885;28;20042;-76
2023/07/27 05:59:06;;;;;;;1.90;1.45;;;;;;;16.25;100.00;100319.59;10292287;28;20034;-75
2023/07/27 06:04:07;;;;;;;1.30;1.30;;;;;;;16.34;100.00;100311.00;10293000;28;20117;-74
2023/07/27 06:09:09;;;;;;;2.58;2.38;;;;;;;16.44;100.00;100301.03;10292967;28;20035;-75
2023/07/27 06:14:10;;;;;;;2.85;2.63;;;;;;;16.55;100.00;100296.53;10292647;28;20122;-74
2023/07/27 06:19:10;;;;;;;5.18;3.08;;;;;;;16.59;100.00;100285.91;10292716;28;20415;-76
2023/07/27 06:24:10;;;;;;;5.40;3.75;;;;;;;16.62;100.00;100299.91;10275280;28;20027;-74
2023/07/27 06:29:11;;;;;;;3.97;2.13;;;;;;;16.64;100.00;100302.41;10274467;28;20131;-75
2023/07/27 06:34:11;;;;;;;13.70;3.42;;;;;;;16.71;100.00;100305.78;10291076;28;20039;-74
2023/07/27 06:39:12;;;;;;;3.00;2.75;;;;;;;16.77;100.00;100299.34;10274994;28;20110;-76
2023/07/27 06:44:12;;;;;;;4.47;2.78;;;;;;;16.88;100.00;100295.66;10279842;28;20066;-75
2023/07/27 06:49:13;;;;;;;7.55;2.92;;;;;;;16.94;100.00;100305.59;10299582;28;20117;-75
2023/07/27 06:54:14;;;;;;;6.60;3.22;;;;;;;17.02;100.00;100303.47;10299291;28;20360;-76
2023/07/27 06:59:15;;;;;;;4.00;2.53;;;;;;;16.99;100.00;100301.25;10282082;28;20037;-75
2023/07/27 07:04:15;;;;;;;3.03;1.92;;;;;;;16.98;100.00;100294.13;10267012;28;20035;-75
2023/07/27 07:09:16;;;;;;;3.60;1.92;;;;;;;17.06;100.00;100305.44;10299386;28;20100;-75
2023/07/27 07:14:16;;;;;;;6.65;2.25;;;;;;;17.12;100.00;100309.06;10298271;28;20042;-75
2023/07/27 07:19:17;;;;;;;4.72;1.88;;;;;;;17.04;100.00;100304.88;10281551;28;20478;-74
2023/07/27 07:24:18;;;;;;;9.30;2.38;;;;;;;17.07;100.00;100303.53;10298748;28;20170;-75
2023/07/27 07:29:20;;;;;;;4.95;2.00;;;;;;;17.11;100.00;100302.78;10297407;28;20137;-75
2023/07/27 07:34:20;;;;;;;6.97;3.10;;;;;;;17.30;100.00;100297.78;10298341;28;20038;-73
2023/07/27 07:39:21;;;;;;;5.43;3.30;;;;;;;17.27;100.00;100295.56;10297488;28;20463;-73
2023/07/27 07:44:21;;;;;;;10.75;2.90;;;;;;;17.33;100.00;100296.47;10280908;28;20046;-77
2023/07/27 07:49:26;;;;;;;5.95;2.75;;;;;;;17.23;100.00;100288.97;10296061;28;20077;-74
2023/07/27 07:54:29;;;;;;;6.72;2.75;;;;;;;17.24;100.00;100287.06;10296485;28;20130;-74
2023/07/27 07:59:30;;;;;;;1.77;1.67;;;;;;;17.40;100.00;100286.13;10279559;28;20117;-73
2023/07/27 08:04:31;;;;;;;6.65;2.90;;;;;;;17.51;100.00;100285.13;10295323;28;20058;-73
2023/07/27 08:09:31;;;;;;;8.90;2.53;;;;;;;17.52;100.00;100278.59;10296767;28;20041;-73
2023/07/27 08:14:31;;;;;;;5.78;2.47;;;;;;;17.58;100.00;100271.25;10295834;28;20038;-73
2023/07/27 08:19:32;;;;;;;4.82;3.38;;;;;;;17.67;100.00;100266.94;10295219;28;20510;-73
2023/07/27 08:24:32;;;;;;;8.77;3.53;;;;;;;17.74;100.00;100266.72;10295537;28;20042;-73
2023/07/27 08:29:33;;;;;;;13.27;3.28;;;;;;;17.85;100.00;100274.00;10262935;28;20474;-73
2023/07/27 08:34:33;;;;;;;8.73;3.25;;;;;;;17.83;100.00;100274.25;10295408;28;20403;-74
2023/07/27 08:39:34;;;;;;;6.95;2.35;;;;;;;17.95;100.00;100267.78;10295685;28;20129;-73
2023/07/27 08:44:34;;;;;;;9.73;3.42;;;;;;;18.16;100.00;100266.84;10293707;28;20042;-74
2023/07/27 08:49:35;;;;;;;7.40;2.28;;;;;;;18.09;100.00;100272.56;10277936;28;20031;-74
2023/07/27 08:54:35;;;;;;;3.35;2.38;;;;;;;18.04;100.00;100275.25;10277232;28;20030;-73
2023/07/27 08:59:35;;;;;;;2.90;1.73;;;;;;;18.21;100.00;100285.22;10294948;28;20039;-72
2023/07/27 09:04:36;;;;;;;5.82;1.90;;;;;;;18.35;100.00;100276.28;10292056;28;20062;-74
2023/07/27 09:09:36;;;;;;;7.10;2.08;;;;;;;18.26;100.00;100283.34;10276673;28;20074;-73
2023/07/27 09:14:37;;;;;;;11.90;1.98;;;;;;;18.19;100.00;100279.16;10293999;28;20386;-72
2023/07/27 09:19:39;;;;;;;2.35;2.20;;;;;;;18.27;100.00;100285.00;10293535;28;20034;-73
2023/07/27 09:24:39;;;;;;;6.88;2.22;;;;;;;18.28;100.00;100274.84;10293040;28;20039;-73
2023/07/27 09:29:40;;;;;;;6.18;1.92;;;;;;;18.39;100.00;100279.31;10275850;28;20058;-74
2023/07/27 09:34:41;;;;;;;7.57;2.20;;;;;;;18.32;100.00;100285.03;10260098;28;20497;-73
2023/07/27 09:39:43;;;;;;;12.10;3.13;;;;;;;18.24;100.00;100284.69;10276358;28;20126;-72
2023/07/27 09:44:48;;;;;;;3.95;2.47;;;;;;;18.14;100.00;100282.72;10275243;28;20045;-73
2023/07/27 09:49:48;;;;;;;6.65;2.03;;;;;;;18.23;100.00;100286.63;10291971;28;20142;-73
2023/07/27 09:54:48;;;;;;;9.13;3.13;;;;;;;18.29;100.00;100282.81;10274642;28;20027;-72
2023/07/27 09:59:49;;;;;;;11.93;2.70;;;;;;;18.54;100.00;100278.59;10293090;28;20122;-72
2023/07/27 10:04:49;;;;;;;3.15;2.05;;;;;;;18.98;100.00;100278.28;10291782;28;20141;-74
2023/07/27 10:10:28;;;;;;;5.65;2.75;;;;;;;19.07;100.00;100276.66;10275624;28;20034;-72
2023/07/27 10:15:29;;;;;;;7.18;2.40;;;;;;;18.95;100.00;100279.66;10276210;28;20042;-73
2023/07/27 10:20:30;;;;;;;5.72;2.63;;;;;;;18.89;100.00;100279.88;10300498;28;20435;-74
2023/07/27 10:25:53;;;;;;;2.10;1.52;;;;;;;18.84;100.00;100282.63;10283152;28;20034;-74
2023/07/27 10:31:23;;;;;;;3.75;1.92;;;;;;;19.13;100.00;100286.56;10301649;28;20038;-73
2023/07/27 10:36:24;;;;;;;2.05;1.52;;;;;;;19.18;100.00;100283.84;10299255;28;20475;-72
2023/07/27 10:41:25;;;;;;;3.83;1.50;;;;;;;18.89;100.00;100279.88;10283813;28;20038;-72
2023/07/27 10:46:25;;;;;;;3.92;1.75;;;;;;;18.88;100.00;100289.22;10300260;28;20118;-72
2023/07/27 10:51:26;;;;;;;6.88;2.47;;;;;;;18.71;100.00;100279.22;10300350;28;20074;-72
2023/07/27 10:56:26;;;;;;;5.22;1.85;;;;;;;18.80;100.00;100287.81;10298566;28;20043;-72
2023/07/27 11:01:31;;;;;;;3.90;2.85;;;;;;;18.96;100.00;100283.22;10281328;28;20106;-72
2023/07/27 11:06:41;;;;;;;2.70;2.47;;;;;;;18.94;100.00;100288.13;10296868;28;20041;-72
2023/07/27 11:11:42;;;;;;;3.47;3.15;;;;;;;19.10;100.00;100292.59;10281046;28;20030;-72
2023/07/27 11:16:43;;;;;;;2.85;1.85;;;;;;;19.16;100.00;100287.94;10281138;28;20034;-72
2023/07/27 11:21:43;;;;;;;3.08;2.28;;;;;;;19.22;100.00;100284.94;10265879;28;20035;-72
2023/07/27 11:26:43;;;;;;;3.47;1.63;;;;;;;19.32;100.00;100281.41;10264562;28;20487;-72
2023/07/27 11:31:53;;;;;;;11.23;2.08;;;;;;;19.47;100.00;100286.13;10281534;28;20050;-73
2023/07/27 11:36:55;;;;;;;3.17;2.92;;;;;;;19.57;100.00;100286.13;10297761;28;20041;-74
2023/07/27 11:41:55;;;;;;;2.53;2.33;;;;;;;19.65;100.00;100282.88;10296729;28;20049;-74
2023/07/27 11:46:56;;;;;;;5.47;3.03;;;;;;;19.56;100.00;100287.25;10280643;28;20042;-74
2023/07/27 11:51:57;;;;;;;6.13;3.20;;;;;;;19.43;100.00;100288.59;10296475;28;20211;-72
2023/07/27 11:56:58;;;;;;;4.50;2.60;;;;;;;19.36;100.00;100282.50;10279727;28;20077;-73
2023/07/27 12:01:58;;;;;;;5.95;3.28;;;;;;;19.23;100.00;100280.28;10264330;28;20027;-73
2023/07/27 12:06:59;;;;;;;10.70;4.07;;;;;;;19.17;100.00;100298.66;10279544;28;20450;-76
2023/07/27 12:12:00;;;;;;;16.00;4.63;;;;;;;19.07;100.00;100287.63;10295872;28;20066;-74
2023/07/27 12:17:08;;;;;;;5.80;3.83;;;;;;;18.85;100.00;100289.75;10297238;28;20062;-72
2023/07/27 12:22:09;;;;;;;9.07;5.13;;;;;;;18.72;100.00;100291.88;10278422;28;20050;-73
2023/07/27 12:27:09;;;;;;;9.77;3.67;;;;;;;18.68;100.00;100292.66;10262173;28;20502;-73
2023/07/27 12:32:09;;;;;;;14.10;6.30;;;;;;;18.63;100.00;100295.34;10294833;28;20057;-73
2023/07/27 12:37:10;;;;;;;18.77;5.30;;;;;;;18.57;100.00;100302.75;10296508;28;20097;-73
2023/07/27 12:42:11;;;;;;;12.48;5.03;;;;;;;18.48;100.00;100310.63;10277048;28;20030;-74
2023/07/27 12:47:12;;;;;;;18.20;5.32;;;;;;;18.48;100.00;100296.13;10293745;28;20062;-72
2023/07/27 12:52:12;;;;;;;16.17;4.90;;;;;;;18.49;100.00;100298.56;10293937;28;20505;-74
2023/07/27 12:57:12;;;;;;;5.57;5.10;;;;;;;18.58;100.00;100299.72;10261560;28;20061;-75
2023/07/27 13:02:13;;;;;;;15.13;5.22;;;;;;;18.61;100.00;100298.38;10294989;28;20501;-73
2023/07/27 13:07:13;;;;;;;11.93;6.55;;;;;;;18.71;100.00;100294.88;10276995;28;20046;-74
2023/07/27 13:12:14;;;;;;;16.77;5.75;;;;;;;18.67;100.00;100297.31;10293769;28;20081;-73
2023/07/27 13:17:14;;;;;;;14.60;4.50;;;;;;;18.62;100.00;100305.50;10294976;28;20046;-74
2023/07/27 13:22:14;;;;;;;7.00;4.40;;;;;;;18.62;100.00;100300.03;10293506;28;20038;-74
2023/07/27 13:27:15;;;;;;;19.38;5.30;;;;;;;18.57;100.00;100316.47;10293665;28;20054;-74
2023/07/27 13:32:15;;;;;;;15.30;4.80;;;;;;;18.73;100.00;100312.75;10293904;28;20034;-73
2023/07/27 13:37:16;;;;;;;9.88;3.63;;;;;;;19.00;100.00;100315.34;10293262;28;20075;-73
2023/07/27 13:42:16;;;;;;;10.05;4.18;;;;;;;19.14;100.00;100323.06;10275628;28;20491;-73
2023/07/27 13:47:17;;;;;;;8.90;4.30;;;;;;;19.15;100.00;100320.06;10292837;28;20094;-73
2023/07/27 13:52:17;;;;;;;6.75;3.65;;;;;;;18.88;100.00;100317.47;10292125;28;20360;-75
2023/07/27 13:57:18;;;;;;;14.68;5.10;;;;;;;19.06;100.00;100313.44;10231291;28;20054;-75
2023/07/27 14:02:18;;;;;;;9.60;4.72;;;;;;;18.87;100.00;100321.31;10293005;28;20058;-74
2023/07/27 14:07:19;;;;;;;4.63;4.22;;;;;;;18.74;100.00;100321.78;10276371;28;20085;-75
2023/07/27 14:12:19;;;;;;;8.80;5.75;;;;;;;18.68;100.00;100318.16;10292509;28;20039;-75
2023/07/27 14:17:19;;;;;;;15.63;6.68;;;;;;;18.74;100.00;100327.28;10291113;28;20042;-76
2023/07/27 14:22:21;;;;;;;11.40;6.93;;;;;;;18.64;100.00;100322.53;10275061;28;20126;-75
2023/07/27 14:27:23;;;;;;;13.20;5.32;;;;;;;18.75;100.00;100324.25;10291843;28;20062;-74
2023/07/27 14:32:24;;;;;;;13.07;5.68;;;;;;;18.73;100.00;100326.47;10276338;28;20336;-74
2023/07/27 14:37:24;;;;;;;13.75;5.45;;;;;;;18.74;100.00;100328.09;10275978;28;20118;-75
2023/07/27 14:42:25;;;;;;;12.40;5.53;;;;;;;18.61;100.00;100328.53;10275387;28;20466;-76
2023/07/27 14:47:25;;;;;;;7.75;4.13;;;;;;;18.60;100.00;100348.81;10259236;28;20113;-75
2023/07/27 14:52:26;;;;;;;9.93;4.65;;;;;;;18.59;100.00;100348.00;10274852;28;20031;-74
2023/07/27 14:57:26;;;;;;;6.43;4.15;;;;;;;18.54;100.00;100345.22;10274859;28;20207;-74
2023/07/27 15:02:27;;;;;;;5.28;4.70;;;;;;;18.53;100.00;100340.00;10275407;28;20035;-75
2023/07/27 15:07:27;;;;;;;4.07;3.08;;;;;;;18.60;100.00;100346.06;10281847;28;20133;-75
2023/07/27 15:12:27;;;;;;;10.38;4.15;;;;;;;18.56;100.00;100339.47;10267235;28;20043;-75
2023/07/27 15:17:28;;;;;;;16.50;5.75;;;;;;;18.49;100.00;100350.66;10298678;28;20041;-74
2023/07/27 15:22:28;;;;;;;18.17;5.35;;;;;;;18.49;100.00;100347.94;10297996;28;20034;-75
2023/07/27 15:27:29;;;;;;;19.02;5.97;;;;;;;18.68;100.00;100339.28;10298071;28;20172;-75
2023/07/27 15:32:29;;;;;;;17.80;6.32;;;;;;;18.99;100.00;100341.13;10281021;28;20490;-75
2023/07/27 15:37:30;;;;;;;11.73;6.00;;;;;;;19.12;100.00;100339.00;10281179;28;20035;-75
2023/07/27 15:42:30;;;;;;;13.90;5.75;;;;;;;18.91;100.00;100336.13;10297224;28;20039;-76
2023/07/27 15:47:30;;;;;;;11.57;4.57;;;;;;;18.93;100.00;100350.44;10280419;28;20066;-76
2023/07/27 15:52:31;;;;;;;9.55;3.08;;;;;;;18.86;100.00;100349.84;10297120;28;20039;-76
2023/07/27 15:57:31;;;;;;;11.93;4.55;;;;;;;18.67;100.00;100348.59;10297899;28;20115;-76
2023/07/27 16:02:31;;;;;;;5.22;3.78;;;;;;;18.58;100.00;100334.56;10279748;28;20424;-76
2023/07/27 16:07:33;;;;;;;4.85;3.30;;;;;;;18.50;100.00;100341.34;10296971;28;20210;-76
2023/07/27 16:12:36;;;;;;;10.82;4.18;;;;;;;18.45;100.00;100341.31;10297601;28;20038;-76
2023/07/27 16:17:36;;;;;;;16.67;3.70;;;;;;;18.49;100.00;100353.41;10296106;28;20045;-76
2023/07/27 16:22:37;;;;;;;5.25;3.03;;;;;;;18.45;100.00;100341.31;10279466;28;20089;-76
2023/07/27 16:27:37;;;;;;;13.68;3.50;;;;;;;18.43;100.00;100353.63;10279454;28;20126;-76
2023/07/27 16:32:38;;;;;;;8.25;3.28;;;;;;;18.42;100.00;100355.56;10294568;28;20050;-76
2023/07/27 16:37:38;;;;;;;7.78;4.28;;;;;;;18.45;100.00;100351.47;10278996;28;20114;-76
2023/07/27 16:42:39;;;;;;;12.68;3.13;;;;;;;18.31;100.00;100349.19;10294923;28;20031;-76
2023/07/27 16:47:39;;;;;;;11.43;3.80;;;;;;;18.34;100.00;100329.44;10262312;28;20059;-76
2023/07/27 16:52:39;;;;;;;14.95;4.03;;;;;;;18.43;100.00;100339.94;10296097;28;20090;-76
2023/07/27 16:57:40;;;;;;;10.77;3.45;;;;;;;18.44;100.00;100342.44;10294971;28;20390;-76
2023/07/27 17:02:40;;;;;;;16.13;5.70;;;;;;;18.48;100.00;100334.50;10294787;28;20039;-76
2023/07/27 17:07:41;;;;;;;7.97;3.20;;;;;;;18.44;100.00;100336.09;10295688;28;20031;-76
2023/07/27 17:12:41;;;;;;;4.35;3.35;;;;;;;18.47;100.00;100332.81;10278154;28;20039;-76
2023/07/27 17:17:41;;;;;;;12.20;4.00;;;;;;;18.58;100.00;100326.31;10297009;28;20431;-77
2023/07/27 17:22:42;;;;;;;11.35;3.88;;;;;;;18.66;100.00;100335.97;10294715;28;20035;-76
2023/07/27 17:27:42;;;;;;;7.05;3.10;;;;;;;18.72;100.00;100341.25;10292934;28;20561;-77
2023/07/27 17:32:43;;;;;;;9.68;3.08;;;;;;;18.66;100.00;100345.00;10261811;28;20126;-76
2023/07/27 17:37:44;;;;;;;8.10;3.85;;;;;;;18.74;100.00;100332.75;10293269;28;20043;-76
2023/07/27 17:42:44;;;;;;;3.47;2.53;;;;;;;18.68;100.00;100329.13;10293707;28;20035;-76
2023/07/27 17:47:45;;;;;;;10.75;4.57;;;;;;;18.58;100.00;100343.59;10293104;28;20539;-76
2023/07/27 17:52:45;;;;;;;4.13;2.85;;;;;;;18.59;100.00;100345.25;10260233;28;20035;-76
2023/07/27 17:57:47;;;;;;;10.95;4.13;;;;;;;18.66;100.00;100346.94;10293760;28;20101;-76
2023/07/27 18:02:48;;;;;;;11.02;3.72;;;;;;;18.61;100.00;100358.72;10293020;28;20474;-76
2023/07/27 18:07:48;;;;;;;6.97;3.65;;;;;;;18.52;100.00;100338.34;10275930;28;20479;-76
2023/07/27 18:12:49;;;;;;;8.02;3.78;;;;;;;18.48;100.00;100353.69;10293103;28;20035;-76
2023/07/27 18:17:49;;;;;;;3.88;3.53;;;;;;;18.55;100.00;100357.03;10275802;28;20042;-76
2023/07/27 18:22:54;;;;;;;5.72;2.55;;;;;;;18.64;100.00;100344.47;10276027;28;20035;-75
2023/07/27 18:27:54;;;;;;;8.82;4.15;;;;;;;18.72;100.00;100345.88;10291411;28;20051;-75
2023/07/27 18:32:55;;;;;;;7.88;3.05;;;;;;;18.67;100.00;100360.41;10292716;28;20042;-75
2023/07/27 18:37:55;;;;;;;7.25;3.50;;;;;;;18.73;100.00;100356.63;10294855;28;20402;-75
2023/07/27 18:42:56;;;;;;;11.77;3.70;;;;;;;18.64;100.00;100358.19;10299002;28;20055;-76
2023/07/27 18:47:56;;;;;;;11.00;3.65;;;;;;;18.58;100.00;100368.28;10282661;28;20399;-76
2023/07/27 18:52:56;;;;;;;9.00;3.28;;;;;;;18.54;100.00;100371.84;10299367;28;20070;-75
2023/07/27 18:57:57;;;;;;;8.07;3.20;;;;;;;18.51;100.00;100375.91;10282226;28;20447;-76
2023/07/27 19:02:57;;;;;;;13.45;3.42;;;;;;;18.48;100.00;100379.19;10283565;28;20062;-75
2023/07/27 19:07:58;;;;;;;11.10;3.60;;;;;;;18.41;100.00;100384.06;10297735;28;20415;-75
2023/07/27 19:12:58;;;;;;;8.55;4.53;;;;;;;18.41;100.00;100394.19;10281048;28;20057;-75
2023/07/27 19:17:58;;;;;;;7.25;4.32;;;;;;;18.39;100.00;100388.16;10296733;28;20062;-76
2023/07/27 19:22:59;;;;;;;5.63;2.38;;;;;;;18.42;100.00;100384.91;10281219;28;20034;-75
2023/07/27 19:27:59;;;;;;;8.93;3.28;;;;;;;18.43;100.00;100386.53;10298088;28;20082;-75
2023/07/27 19:33:00;;;;;;;8.18;3.63;;;;;;;18.41;100.00;100391.44;10298014;28;20426;-76
2023/07/27 19:38:01;;;;;;;10.95;3.10;;;;;;;18.42;100.00;100390.38;10281829;28;20089;-74
2023/07/27 19:43:01;;;;;;;16.23;2.58;;;;;;;18.42;100.00;100385.72;10284079;28;20038;-76
2023/07/27 19:48:02;;;;;;;10.23;2.92;;;;;;;18.43;100.00;100383.78;10280352;28;20039;-75
2023/07/27 19:53:02;;;;;;;9.90;3.13;;;;;;;18.41;100.00;100399.66;10296463;28;20042;-75
2023/07/27 19:58:03;;;;;;;7.25;2.83;;;;;;;18.42;100.00;100407.66;10263809;28;20031;-75
2023/07/27 20:03:03;;;;;;;11.50;3.70;;;;;;;18.38;100.00;100400.19;10297165;28;20035;-75
2023/07/27 20:08:04;;;;;;;11.82;3.67;;;;;;;18.40;100.00;100392.53;10296694;28;20078;-75
2023/07/27 20:13:05;;;;;;;10.90;3.65;;;;;;;18.43;100.00;100408.47;10280224;28;20037;-76
2023/07/27 20:18:05;;;;;;;4.13;3.63;;;;;;;18.44;100.00;100399.16;10296886;28;20497;-75
2023/07/27 20:23:05;;;;;;;4.88;2.40;;;;;;;18.40;100.00;100398.84;10296734;28;20038;-75
2023/07/27 20:28:06;;;;;;;7.43;3.08;;;;;;;18.44;100.00;100396.41;10279564;28;20058;-75
2023/07/27 20:33:06;;;;;;;3.33;1.65;;;;;;;18.43;100.00;100406.53;10296162;28;20463;-75
2023/07/27 20:38:06;;;;;;;11.45;3.40;;;;;;;18.44;100.00;100400.00;10278765;28;20045;-75
2023/07/27 20:43:07;;;;;;;10.57;3.70;;;;;;;18.43;100.00;100389.28;10295912;28;20069;-74
2023/07/27 20:48:07;;;;;;;16.63;3.58;;;;;;;18.47;100.00;100401.38;10296023;28;20034;-74
2023/07/27 20:53:08;;;;;;;13.35;3.53;;;;;;;18.48;100.00;100400.31;10296166;28;20038;-74
2023/07/27 20:58:08;;;;;;;4.15;3.20;;;;;;;18.48;100.00;100394.81;10295835;28;20046;-75
2023/07/27 21:03:08;;;;;;;10.85;3.47;;;;;;;18.48;100.00;100390.16;10277617;28;20034;-75
2023/07/27 21:08:09;;;;;;;15.88;3.35;;;;;;;18.52;100.00;100398.69;10295357;28;20043;-75
2023/07/27 21:13:09;;;;;;;7.97;2.05;;;;;;;18.44;100.00;100412.84;10295788;28;20038;-75
2023/07/27 21:18:10;;;;;;;11.27;3.08;;;;;;;18.44;100.00;100413.72;10276950;28;20049;-75
2023/07/27 21:23:10;;;;;;;8.70;3.63;;;;;;;18.41;100.00;100413.38;10294923;28;20103;-75
2023/07/27 21:28:10;;;;;;;2.63;2.42;;;;;;;18.41;100.00;100422.44;10262507;28;20066;-75
2023/07/27 21:33:13;;;;;;;4.93;3.50;;;;;;;18.41;100.00;100422.44;10294871;28;20054;-75
2023/07/27 21:38:13;;;;;;;10.30;2.60;;;;;;;18.46;100.00;100424.41;10277207;28;20046;-75
2023/07/27 21:43:14;;;;;;;7.50;3.03;;;;;;;18.45;100.00;100415.34;10294228;28;20069;-75
2023/07/27 21:48:15;;;;;;;3.78;3.30;;;;;;;18.44;100.00;100423.81;10295816;28;20041;-75
2023/07/27 21:53:15;;;;;;;8.90;4.05;;;;;;;18.47;100.00;100431.53;10295093;28;20030;-74
2023/07/27 21:58:16;;;;;;;9.20;3.45;;;;;;;18.49;100.00;100446.63;10277660;28;20185;-74
2023/07/27 22:03:16;;;;;;;7.13;3.58;;;;;;;18.46;100.00;100444.41;10294892;28;20038;-74
2023/07/27 22:08:16;;;;;;;3.88;3.00;;;;;;;18.47;100.00;100446.06;10293920;28;20042;-74
2023/07/27 22:13:17;;;;;;;7.72;3.08;;;;;;;18.50;100.00;100441.97;10285039;28;20050;-73
2023/07/27 22:18:17;;;;;;;6.05;2.67;;;;;;;18.49;100.00;100430.19;10289141;28;20050;-74
2023/07/27 22:23:17;;;;;;;8.30;3.95;;;;;;;18.51;100.00;100438.16;10303454;28;20038;-74
2023/07/27 22:28:18;;;;;;;9.43;3.22;;;;;;;18.47;100.00;100437.81;10287266;28;20065;-74
2023/07/27 22:33:18;;;;;;;10.57;3.55;;;;;;;18.49;100.00;100434.84;10304082;28;20390;-77
2023/07/27 22:38:19;;;;;;;7.95;2.85;;;;;;;18.47;100.00;100428.78;10306507;28;20039;-74
2023/07/27 22:43:19;;;;;;;9.23;3.58;;;;;;;18.44;100.00;100434.78;10302858;28;20493;-74